Time;durP1;ratioP1;P1;durP2;ratioP2;P2;SDS_P1;SDS_P2;PMS_P1;PMS_P2;Temp;Humidity;BMP_temperature;BMP_pressure;BME280_temperature;BME280_humidity;BME280_pressure;Samples;Min_cycle;Max_cycle;Signal;HPM_P1;HPM_P2
2023/10/15 00:00:41;;;;;;;;;;;20.90;62.20;;;;;;6317436;28;19939;-70
2023/10/15 00:03:41;;;;;;;;;;;20.90;62.50;;;;;;6318605;28;19912;-68
2023/10/15 00:06:42;;;;;;;;;;;20.90;62.10;;;;;;6317298;28;20286;-69
2023/10/15 00:09:43;;;;;;;;;;;20.90;62.40;;;;;;6317120;28;20057;-68
2023/10/15 00:12:46;;;;;;;;;;;20.90;62.40;;;;;;6318798;28;20340;-68
2023/10/15 00:15:47;;;;;;;;;;;20.90;62.50;;;;;;6318887;28;20315;-68
2023/10/15 00:18:48;;;;;;;;;;;20.90;62.20;;;;;;6319316;28;19908;-69
2023/10/15 00:21:48;;;;;;;;;;;20.90;62.20;;;;;;6320766;28;19912;-69
2023/10/15 00:24:50;;;;;;;;;;;20.90;62.30;;;;;;6322657;28;19912;-69
2023/10/15 00:27:57;;;;;;;;;;;20.90;62.30;;;;;;6324389;28;19908;-68
2023/10/15 00:31:00;;;;;;;;;;;20.90;62.30;;;;;;6322438;28;19909;-68
2023/10/15 00:34:01;;;;;;;;;;;20.90;62.40;;;;;;6313334;28;19953;-68
2023/10/15 00:37:03;;;;;;;;;;;20.90;62.30;;;;;;6323075;28;19912;-69
2023/10/15 00:40:04;;;;;;;;;;;20.90;62.40;;;;;;6322118;28;19965;-68
2023/10/15 00:43:05;;;;;;;;;;;20.90;62.30;;;;;;6317654;28;20017;-69
2023/10/15 00:46:13;;;;;;;;;;;20.90;62.30;;;;;;6317406;28;19908;-70
2023/10/15 00:49:14;;;;;;;;;;;20.90;62.40;;;;;;6321453;28;19919;-69
2023/10/15 00:52:15;;;;;;;;;;;20.90;62.40;;;;;;6322301;28;19950;-68
2023/10/15 00:55:17;;;;;;;;;;;20.90;62.40;;;;;;6317538;28;19912;-67
2023/10/15 01:01:49;;;;;;;;;;;20.90;62.20;;;;;;6313879;28;20329;-68
2023/10/15 01:04:51;;;;;;;;;;;20.90;62.30;;;;;;6322267;28;19908;-68
2023/10/15 01:07:54;;;;;;;;;;;20.90;62.20;;;;;;6321977;28;19908;-69
2023/10/15 01:11:11;;;;;;;;;;;20.90;62.30;;;;;;6322027;28;20004;-69
2023/10/15 01:14:12;;;;;;;;;;;20.90;62.40;;;;;;6322277;28;20289;-69
2023/10/15 01:17:12;;;;;;;;;;;20.90;62.20;;;;;;6321955;28;19909;-67
2023/10/15 01:20:18;;;;;;;;;;;20.90;62.20;;;;;;6323285;28;19909;-68
2023/10/15 01:23:28;;;;;;;;;;;20.90;62.30;;;;;;6321417;28;20518;-68
2023/10/15 01:26:34;;;;;;;;;;;20.90;62.20;;;;;;6320920;28;19908;-68
2023/10/15 01:29:38;;;;;;;;;;;20.90;62.20;;;;;;6320761;28;19991;-68
2023/10/15 01:32:39;;;;;;;;;;;20.90;62.20;;;;;;6321360;28;19912;-67
2023/10/15 01:35:44;;;;;;;;;;;20.90;62.70;;;;;;6311788;28;20366;-70
2023/10/15 01:38:44;;;;;;;;;;;20.90;62.20;;;;;;6319686;28;19922;-70
2023/10/15 01:41:50;;;;;;;;;;;20.90;62.30;;;;;;6320610;28;19916;-68
2023/10/15 01:44:52;;;;;;;;;;;20.90;62.00;;;;;;6320294;28;19908;-69
2023/10/15 01:51:04;;;;;;;;;;;20.90;62.00;;;;;;6321694;28;19916;-68
2023/10/15 01:54:09;;;;;;;;;;;20.90;62.20;;;;;;6321040;28;19935;-67
2023/10/15 01:57:10;;;;;;;;;;;20.90;62.20;;;;;;6320591;28;19919;-67
2023/10/15 02:00:43;;;;;;;;;;;20.90;62.10;;;;;;6321785;28;19908;-68
2023/10/15 02:03:37;;;;;;;;;;;20.90;62.00;;;;;;6320654;28;19919;-69
2023/10/15 02:06:43;;;;;;;;;;;20.90;61.20;;;;;;6320591;28;20454;-68
2023/10/15 02:09:44;;;;;;;;;;;20.90;62.00;;;;;;6312054;28;19908;-69
2023/10/15 02:12:51;;;;;;;;;;;20.90;62.10;;;;;;6320159;28;19915;-67
2023/10/15 02:15:55;;;;;;;;;;;20.90;62.00;;;;;;6318193;28;20338;-67
2023/10/15 02:19:00;;;;;;;;;;;20.90;61.00;;;;;;6313767;28;19936;-69
2023/10/15 02:22:01;;;;;;;;;;;20.90;61.50;;;;;;6320357;28;20371;-68
2023/10/15 02:25:03;;;;;;;;;;;20.90;61.70;;;;;;6320337;28;20593;-70
2023/10/15 02:28:04;;;;;;;;;;;20.90;61.80;;;;;;6319772;28;19915;-69
2023/10/15 02:34:14;;;;;;;;;;;20.90;61.70;;;;;;6315635;28;20462;-70
2023/10/15 02:37:17;;;;;;;;;;;20.90;61.70;;;;;;6315872;28;19915;-68
2023/10/15 02:40:17;;;;;;;;;;;20.90;61.80;;;;;;6310045;28;19958;-69
2023/10/15 02:43:18;;;;;;;;;;;20.90;62.00;;;;;;6319182;28;19916;-68
2023/10/15 02:46:22;;;;;;;;;;;20.90;62.00;;;;;;6318251;28;19912;-68
2023/10/15 02:49:25;;;;;;;;;;;20.90;61.90;;;;;;6319984;28;19939;-68
2023/10/15 02:52:26;;;;;;;;;;;20.90;61.80;;;;;;6319936;28;19978;-67
2023/10/15 02:55:36;;;;;;;;;;;20.90;61.90;;;;;;6311093;28;19913;-69
2023/10/15 02:58:37;;;;;;;;;;;20.90;62.00;;;;;;6319724;28;20393;-69
2023/10/15 03:01:38;;;;;;;;;;;20.90;61.90;;;;;;6319625;28;19912;-69
2023/10/15 03:04:38;;;;;;;;;;;20.90;61.80;;;;;;6319763;28;19915;-68
2023/10/15 03:07:43;;;;;;;;;;;20.90;61.90;;;;;;6319303;28;19966;-69
2023/10/15 03:10:56;;;;;;;;;;;20.90;61.90;;;;;;6319396;28;20357;-67
2023/10/15 03:13:56;;;;;;;;;;;20.90;61.80;;;;;;6319374;28;19942;-68
2023/10/15 03:16:57;;;;;;;;;;;20.90;61.90;;;;;;6317628;28;19908;-70
2023/10/15 03:23:17;;;;;;;;;;;20.90;61.80;;;;;;6318948;28;20378;-68
2023/10/15 03:26:18;;;;;;;;;;;20.80;62.60;;;;;;6312887;28;19953;-69
2023/10/15 03:29:21;;;;;;;;;;;20.90;61.80;;;;;;6318907;28;20581;-67
2023/10/15 03:32:31;;;;;;;;;;;20.90;61.80;;;;;;6310241;28;20436;-68
2023/10/15 03:35:38;;;;;;;;;;;20.90;61.20;;;;;;6310677;28;19915;-69
2023/10/15 03:38:39;;;;;;;;;;;20.90;61.90;;;;;;6309896;28;19922;-69
2023/10/15 03:41:40;;;;;;;;;;;20.90;61.90;;;;;;6317142;28;19924;-67
2023/10/15 03:44:44;;;;;;;;;;;20.90;61.90;;;;;;6317059;28;20382;-68
2023/10/15 03:47:47;;;;;;;;;;;20.90;62.00;;;;;;6318295;28;19908;-67
2023/10/15 03:50:57;;;;;;;;;;;20.90;62.00;;;;;;6300451;28;20007;-68
2023/10/15 03:54:06;;;;;;;;;;;20.90;62.00;;;;;;6307866;28;20294;-67
2023/10/15 03:57:07;;;;;;;;;;;20.90;61.70;;;;;;6317682;28;19995;-68
2023/10/15 04:00:46;;;;;;;;;;;20.90;61.30;;;;;;6313997;28;19908;-70
2023/10/15 04:03:50;;;;;;;;;;;20.90;61.80;;;;;;6311046;28;19912;-67
2023/10/15 04:07:10;;;;;;;;;;;20.90;61.00;;;;;;6318352;28;19908;-68
2023/10/15 04:10:12;;;;;;;;;;;20.90;61.80;;;;;;6312327;28;19908;-70
2023/10/15 04:13:14;;;;;;;;;;;20.90;61.00;;;;;;6317928;28;19915;-68
2023/10/15 04:16:15;;;;;;;;;;;20.90;61.50;;;;;;6313350;28;19919;-67
2023/10/15 04:19:17;;;;;;;;;;;20.90;62.00;;;;;;6310410;28;19912;-67
2023/10/15 04:22:18;;;;;;;;;;;20.90;62.00;;;;;;6309540;28;19919;-70
2023/10/15 04:25:32;;;;;;;;;;;20.90;61.40;;;;;;6317191;28;19912;-68
2023/10/15 04:28:33;;;;;;;;;;;20.90;62.10;;;;;;6316272;28;19946;-69
2023/10/15 04:31:34;;;;;;;;;;;20.90;62.20;;;;;;6316469;28;20007;-68
2023/10/15 04:34:36;;;;;;;;;;;20.90;61.60;;;;;;6317928;28;19982;-67
2023/10/15 04:37:37;;;;;;;;;;;20.90;62.00;;;;;;6301408;28;19915;-67
2023/10/15 04:43:56;;;;;;;;;;;20.90;61.40;;;;;;6317682;28;20015;-67
2023/10/15 04:47:05;;;;;;;;;;;20.90;61.60;;;;;;6309635;28;20455;-67
2023/10/15 04:50:14;;;;;;;;;;;20.90;62.00;;;;;;6317857;28;19915;-67
2023/10/15 04:56:16;;;;;;;;;;;20.90;61.40;;;;;;6318319;28;19912;-67
2023/10/15 04:59:17;;;;;;;;;;;20.90;61.10;;;;;;6318957;28;19967;-67
2023/10/15 05:02:18;;;;;;;;;;;20.90;61.10;;;;;;6314710;28;20370;-67
2023/10/15 05:05:18;;;;;;;;;;;20.90;61.50;;;;;;6317332;28;19912;-69
2023/10/15 05:08:20;;;;;;;;;;;20.90;61.20;;;;;;6320163;28;20317;-67
2023/10/15 05:11:21;;;;;;;;;;;20.90;61.10;;;;;;6321940;28;19966;-67
2023/10/15 05:14:22;;;;;;;;;;;20.90;61.20;;;;;;6314075;28;19908;-68
2023/10/15 05:17:22;;;;;;;;;;;20.90;61.10;;;;;;6314254;28;19924;-68
2023/10/15 05:20:23;;;;;;;;;;;21.00;62.00;;;;;;6320094;28;19912;-68
2023/10/15 05:23:24;;;;;;;;;;;20.90;61.90;;;;;;6321538;28;19915;-68
2023/10/15 05:26:25;;;;;;;;;;;20.90;62.80;;;;;;6321811;28;19908;-69
2023/10/15 05:29:26;;;;;;;;;;;20.90;63.00;;;;;;6322143;28;20302;-69
2023/10/15 05:32:26;;;;;;;;;;;20.90;63.40;;;;;;6321328;28;19916;-70
2023/10/15 05:35:28;;;;;;;;;;;21.00;63.50;;;;;;6321591;28;19950;-68
2023/10/15 05:38:29;;;;;;;;;;;20.90;63.10;;;;;;6321421;28;20325;-70
2023/10/15 05:41:32;;;;;;;;;;;20.90;62.70;;;;;;6319343;28;19939;-68
2023/10/15 05:44:32;;;;;;;;;;;20.90;62.70;;;;;;6320143;28;19912;-70
2023/10/15 05:47:33;;;;;;;;;;;20.90;62.50;;;;;;6321149;28;20298;-70
2023/10/15 05:50:34;;;;;;;;;;;20.90;62.30;;;;;;6321272;28;20581;-68
2023/10/15 05:53:35;;;;;;;;;;;20.90;62.30;;;;;;6322176;28;19919;-68
2023/10/15 05:56:35;;;;;;;;;;;20.90;62.00;;;;;;6320939;28;19996;-68
2023/10/15 05:59:36;;;;;;;;;;;20.90;62.00;;;;;;6312006;28;20364;-70
2023/10/15 06:02:37;;;;;;;;;;;20.90;62.00;;;;;;6320910;28;19922;-69
2023/10/15 06:05:39;;;;;;;;;;;20.90;61.90;;;;;;6312441;28;19944;-67
2023/10/15 06:08:39;;;;;;;;;;;20.90;61.90;;;;;;6320032;28;19930;-70
2023/10/15 06:11:40;;;;;;;;;;;20.90;61.90;;;;;;6319044;28;19912;-70
2023/10/15 06:14:40;;;;;;;;;;;20.90;61.90;;;;;;6320396;28;19912;-70
2023/10/15 06:17:42;;;;;;;;;;;20.90;61.90;;;;;;6318829;28;19908;-70
2023/10/15 06:20:45;;;;;;;;;;;20.90;61.80;;;;;;6318543;28;19912;-68
2023/10/15 06:23:45;;;;;;;;;;;20.90;61.80;;;;;;6320317;28;20294;-69
2023/10/15 06:26:46;;;;;;;;;;;20.90;61.80;;;;;;6319453;28;19915;-67
2023/10/15 06:29:46;;;;;;;;;;;20.90;61.80;;;;;;6319910;28;19908;-69
2023/10/15 06:32:47;;;;;;;;;;;20.90;61.70;;;;;;6320907;28;19908;-68
2023/10/15 06:35:51;;;;;;;;;;;20.90;61.60;;;;;;6319802;28;19912;-67
2023/10/15 06:38:51;;;;;;;;;;;20.90;61.60;;;;;;6320094;28;19916;-68
2023/10/15 06:41:52;;;;;;;;;;;20.90;61.60;;;;;;6318746;28;20572;-67
2023/10/15 06:44:53;;;;;;;;;;;20.90;61.60;;;;;;6316040;28;20016;-68
2023/10/15 06:47:54;;;;;;;;;;;20.90;61.60;;;;;;6305173;28;20325;-68
2023/10/15 06:50:54;;;;;;;;;;;20.90;61.60;;;;;;6319829;28;19908;-68
2023/10/15 06:53:55;;;;;;;;;;;20.90;61.60;;;;;;6319791;28;19907;-68
2023/10/15 06:56:56;;;;;;;;;;;20.90;61.50;;;;;;6320294;28;19957;-68
2023/10/15 06:59:57;;;;;;;;;;;20.90;61.50;;;;;;6320826;28;19916;-68
2023/10/15 07:02:57;;;;;;;;;;;20.90;62.50;;;;;;6320797;28;19915;-68
2023/10/15 07:05:58;;;;;;;;;;;20.90;61.50;;;;;;6320847;28;19952;-68
2023/10/15 07:08:59;;;;;;;;;;;20.90;61.50;;;;;;6320775;28;19916;-68
2023/10/15 07:11:59;;;;;;;;;;;20.90;61.50;;;;;;6319490;28;20343;-68
2023/10/15 07:15:01;;;;;;;;;;;20.90;61.40;;;;;;6320228;28;20010;-69
2023/10/15 07:18:02;;;;;;;;;;;20.90;61.40;;;;;;6320290;28;19999;-68
2023/10/15 07:21:03;;;;;;;;;;;20.90;61.40;;;;;;6320014;28;19990;-68
2023/10/15 07:24:05;;;;;;;;;;;20.90;61.40;;;;;;6320157;28;19912;-68
2023/10/15 07:27:05;;;;;;;;;;;20.90;61.40;;;;;;6320055;28;19944;-68
2023/10/15 07:30:08;;;;;;;;;;;20.90;61.40;;;;;;6320018;28;20252;-68
2023/10/15 07:33:09;;;;;;;;;;;20.90;61.40;;;;;;6318809;28;19908;-68
2023/10/15 07:36:10;;;;;;;;;;;20.90;61.30;;;;;;6319924;28;19912;-69
2023/10/15 07:39:11;;;;;;;;;;;20.90;61.30;;;;;;6319379;28;19920;-68
2023/10/15 07:42:11;;;;;;;;;;;20.90;61.30;;;;;;6319618;28;19920;-68
2023/10/15 07:45:13;;;;;;;;;;;20.90;61.30;;;;;;6319275;28;20313;-70
2023/10/15 07:48:13;;;;;;;;;;;20.90;61.30;;;;;;6313720;28;19944;-70
2023/10/15 07:51:15;;;;;;;;;;;20.90;61.20;;;;;;6315543;28;20342;-68
2023/10/15 07:54:15;;;;;;;;;;;20.90;61.20;;;;;;6317277;28;19908;-69
2023/10/15 07:57:16;;;;;;;;;;;20.90;61.20;;;;;;6318362;28;19949;-68
2023/10/15 08:00:22;;;;;;;;;;;20.90;61.30;;;;;;6317944;28;19912;-68
2023/10/15 08:03:26;;;;;;;;;;;20.90;61.20;;;;;;6318251;28;19978;-68
2023/10/15 08:06:27;;;;;;;;;;;20.90;61.20;;;;;;6317773;28;19916;-68
2023/10/15 08:09:29;;;;;;;;;;;20.90;61.20;;;;;;6316799;28;20013;-69
2023/10/15 08:12:31;;;;;;;;;;;20.90;61.20;;;;;;6318751;28;20398;-68
2023/10/15 08:15:35;;;;;;;;;;;20.90;61.10;;;;;;6311000;28;19920;-68
2023/10/15 08:18:36;;;;;;;;;;;20.90;61.20;;;;;;6309485;28;19908;-68
2023/10/15 08:21:37;;;;;;;;;;;20.90;61.10;;;;;;6318938;28;19908;-67
2023/10/15 08:24:38;;;;;;;;;;;20.90;61.10;;;;;;6318934;28;19908;-69
2023/10/15 08:27:44;;;;;;;;;;;20.90;61.20;;;;;;6317718;28;19973;-68
2023/10/15 08:30:44;;;;;;;;;;;20.90;61.20;;;;;;6316908;28;20408;-68
2023/10/15 08:33:45;;;;;;;;;;;20.90;61.10;;;;;;6317234;28;19948;-68
2023/10/15 08:36:45;;;;;;;;;;;20.90;61.10;;;;;;6307479;28;19920;-66
2023/10/15 08:39:46;;;;;;;;;;;20.90;61.10;;;;;;6325942;28;19916;-64
2023/10/15 08:42:48;;;;;;;;;;;20.90;61.00;;;;;;6317826;28;19931;-64
2023/10/15 08:45:49;;;;;;;;;;;20.90;61.10;;;;;;6320664;28;19912;-64
2023/10/15 08:48:51;;;;;;;;;;;20.90;61.50;;;;;;6317518;28;20044;-63
2023/10/15 08:51:52;;;;;;;;;;;20.90;62.30;;;;;;6318911;28;20324;-64
2023/10/15 08:54:56;;;;;;;;;;;20.90;62.30;;;;;;6328978;28;19908;-64
2023/10/15 08:57:56;;;;;;;;;;;20.80;62.20;;;;;;6328580;28;19999;-63
2023/10/15 09:00:57;;;;;;;;;;;20.80;59.30;;;;;;6320111;28;19912;-64
2023/10/15 09:03:58;;;;;;;;;;;20.80;57.30;;;;;;6320292;28;20014;-64
2023/10/15 09:07:01;;;;;;;;;;;20.80;56.50;;;;;;6337769;28;19912;-64
2023/10/15 09:10:02;;;;;;;;;;;20.80;55.00;;;;;;6320729;28;19912;-64
2023/10/15 09:13:03;;;;;;;;;;;20.80;54.60;;;;;;6320481;28;20381;-65
2023/10/15 09:16:05;;;;;;;;;;;20.70;54.40;;;;;;6322988;28;19935;-64
2023/10/15 09:19:07;;;;;;;;;;;20.70;54.40;;;;;;6325072;28;20282;-64
2023/10/15 09:22:15;;;;;;;;;;;20.70;53.20;;;;;;6326385;28;19912;-65
2023/10/15 09:25:15;;;;;;;;;;;20.70;52.50;;;;;;6318710;28;19935;-65
2023/10/15 09:28:16;;;;;;;;;;;20.70;51.90;;;;;;6323688;28;20458;-67
2023/10/15 09:31:17;;;;;;;;;;;20.70;51.40;;;;;;6312025;28;19916;-66
2023/10/15 09:34:18;;;;;;;;;;;20.70;51.90;;;;;;6314493;28;19990;-65
2023/10/15 09:37:20;;;;;;;;;;;20.70;52.20;;;;;;6317862;28;19962;-66
2023/10/15 09:40:22;;;;;;;;;;;20.70;52.00;;;;;;6317031;28;19916;-66
2023/10/15 09:43:24;;;;;;;;;;;20.70;51.10;;;;;;6327030;28;19923;-69
2023/10/15 09:46:26;;;;;;;;;;;20.60;50.50;;;;;;6316118;28;19912;-67
2023/10/15 09:49:28;;;;;;;;;;;20.60;49.80;;;;;;6318658;28;19908;-67
2023/10/15 09:52:29;;;;;;;;;;;20.60;49.80;;;;;;6326405;28;19912;-66
2023/10/15 09:55:34;;;;;;;;;;;20.60;49.30;;;;;;6317668;28;19916;-66
2023/10/15 09:58:35;;;;;;;;;;;20.60;49.30;;;;;;6318895;28;19912;-66
2023/10/15 10:01:38;;;;;;;;;;;20.60;49.20;;;;;;6318886;28;19909;-66
2023/10/15 10:04:52;;;;;;;;;;;20.60;49.20;;;;;;6319500;28;19935;-66
2023/10/15 10:08:14;;;;;;;;;;;20.60;49.40;;;;;;6317625;28;19934;-66
2023/10/15 10:11:24;;;;;;;;;;;20.50;48.40;;;;;;6318830;28;19958;-66
2023/10/15 10:14:40;;;;;;;;;;;20.50;48.40;;;;;;6317706;28;19954;-66
2023/10/15 10:17:41;;;;;;;;;;;20.50;48.60;;;;;;6310988;28;19915;-66
2023/10/15 10:20:44;;;;;;;;;;;20.50;48.50;;;;;;6316247;28;19908;-67
2023/10/15 10:23:44;;;;;;;;;;;20.50;48.60;;;;;;6324699;28;20019;-67
2023/10/15 10:26:53;;;;;;;;;;;20.50;48.30;;;;;;6317375;28;20343;-68
2023/10/15 10:30:15;;;;;;;;;;;20.50;48.10;;;;;;6316845;28;19930;-67
2023/10/15 10:33:35;;;;;;;;;;;20.50;48.50;;;;;;6316166;28;19931;-67
2023/10/15 10:36:38;;;;;;;;;;;20.50;48.50;;;;;;6316564;28;19908;-67
2023/10/15 10:39:43;;;;;;;;;;;20.50;47.80;;;;;;6309576;28;19994;-63
2023/10/15 10:42:59;;;;;;;;;;;20.50;47.70;;;;;;6317645;28;19916;-64
2023/10/15 10:46:00;;;;;;;;;;;20.40;47.60;;;;;;6317894;28;19991;-65
2023/10/15 10:49:02;;;;;;;;;;;20.40;47.30;;;;;;6317686;28;19909;-64
2023/10/15 10:52:04;;;;;;;;;;;20.50;48.00;;;;;;6317324;28;19908;-64
2023/10/15 10:55:23;;;;;;;;;;;20.50;47.20;;;;;;6317007;28;19919;-66
2023/10/15 10:58:24;;;;;;;;;;;20.50;47.90;;;;;;6315612;28;20393;-66
2023/10/15 11:01:27;;;;;;;;;;;20.50;47.80;;;;;;6317876;28;19987;-66
2023/10/15 11:04:28;;;;;;;;;;;20.50;47.00;;;;;;6323864;28;19918;-65
2023/10/15 11:07:40;;;;;;;;;;;20.40;46.80;;;;;;6318503;28;19912;-66
2023/10/15 11:10:44;;;;;;;;;;;20.40;46.60;;;;;;6307485;28;19908;-67
2023/10/15 11:13:44;;;;;;;;;;;20.40;46.80;;;;;;6316668;28;20037;-65
2023/10/15 11:16:47;;;;;;;;;;;20.40;47.50;;;;;;6317054;28;20053;-66
2023/10/15 11:19:48;;;;;;;;;;;20.50;47.40;;;;;;6317165;28;20406;-69
2023/10/15 11:22:51;;;;;;;;;;;20.40;47.10;;;;;;6325466;28;19916;-65
2023/10/15 11:25:54;;;;;;;;;;;20.40;47.20;;;;;;6316932;28;19908;-64
2023/10/15 11:28:54;;;;;;;;;;;20.40;46.00;;;;;;6317473;28;19908;-64
2023/10/15 11:31:56;;;;;;;;;;;20.40;45.90;;;;;;6316679;28;20493;-65
2023/10/15 11:34:57;;;;;;;;;;;20.40;46.00;;;;;;6317973;28;19957;-65
2023/10/15 11:37:57;;;;;;;;;;;20.40;46.00;;;;;;6322203;28;19916;-64
2023/10/15 11:40:59;;;;;;;;;;;20.40;46.40;;;;;;6316746;28;20051;-66
2023/10/15 11:44:06;;;;;;;;;;;20.40;46.30;;;;;;6314090;28;20479;-63
2023/10/15 11:47:11;;;;;;;;;;;20.40;46.60;;;;;;6311694;28;19919;-64
2023/10/15 11:50:12;;;;;;;;;;;20.40;46.20;;;;;;6322835;28;19935;-63
2023/10/15 11:53:23;;;;;;;;;;;20.40;46.80;;;;;;6323199;28;19969;-63
2023/10/15 11:56:26;;;;;;;;;;;20.40;46.40;;;;;;6313771;28;19912;-63
2023/10/15 11:59:27;;;;;;;;;;;20.40;46.20;;;;;;6313636;28;19908;-63
2023/10/15 12:02:28;;;;;;;;;;;20.40;46.40;;;;;;6318856;28;19947;-63
2023/10/15 12:05:33;;;;;;;;;;;20.50;46.80;;;;;;6327719;28;19928;-63
2023/10/15 12:08:33;;;;;;;;;;;20.50;46.80;;;;;;6323532;28;19957;-63
2023/10/15 12:11:35;;;;;;;;;;;20.50;47.10;;;;;;6316121;28;19912;-64
2023/10/15 12:14:36;;;;;;;;;;;20.50;47.10;;;;;;6316619;28;20317;-64
2023/10/15 12:17:36;;;;;;;;;;;20.50;47.40;;;;;;6315562;28;19908;-64
2023/10/15 12:20:37;;;;;;;;;;;20.50;47.40;;;;;;6316727;28;19969;-63
2023/10/15 12:23:37;;;;;;;;;;;20.60;47.60;;;;;;6324592;28;19916;-63
2023/10/15 12:26:38;;;;;;;;;;;20.60;48.20;;;;;;6325262;28;19943;-63
2023/10/15 12:29:38;;;;;;;;;;;20.60;48.50;;;;;;6316340;28;19909;-64
2023/10/15 12:32:39;;;;;;;;;;;20.50;47.80;;;;;;6317090;28;19958;-63
2023/10/15 12:35:40;;;;;;;;;;;20.60;47.80;;;;;;6325042;28;20003;-64
2023/10/15 12:38:43;;;;;;;;;;;20.60;47.00;;;;;;6315688;28;19927;-64
2023/10/15 12:41:44;;;;;;;;;;;20.50;46.30;;;;;;6316264;28;19912;-62
2023/10/15 12:44:46;;;;;;;;;;;20.50;45.80;;;;;;6316160;28;19908;-62
2023/10/15 12:47:48;;;;;;;;;;;20.50;45.50;;;;;;6315028;28;19912;-65
2023/10/15 12:50:48;;;;;;;;;;;20.40;45.40;;;;;;6313356;28;19908;-66
2023/10/15 12:53:49;;;;;;;;;;;20.40;45.70;;;;;;6314015;28;19930;-66
2023/10/15 12:56:50;;;;;;;;;;;20.50;46.70;;;;;;6314392;28;19916;-66
2023/10/15 12:59:50;;;;;;;;;;;20.50;46.10;;;;;;6313870;28;19912;-67
2023/10/15 13:02:53;;;;;;;;;;;20.50;48.10;;;;;;6313676;28;20019;-67
2023/10/15 13:05:54;;;;;;;;;;;20.50;46.70;;;;;;6314848;28;20321;-64
2023/10/15 13:08:55;;;;;;;;;;;20.50;46.70;;;;;;6324371;28;19915;-63
2023/10/15 13:11:56;;;;;;;;;;;20.40;46.10;;;;;;6317077;28;19915;-63
2023/10/15 13:14:58;;;;;;;;;;;20.40;45.50;;;;;;6320084;28;20515;-63
2023/10/15 13:17:59;;;;;;;;;;;20.40;45.00;;;;;;6321272;28;20447;-64
2023/10/15 13:20:59;;;;;;;;;;;20.40;45.30;;;;;;6313245;28;19943;-63
2023/10/15 13:24:00;;;;;;;;;;;20.40;44.80;;;;;;6312891;28;19916;-63
2023/10/15 13:27:01;;;;;;;;;;;20.30;44.90;;;;;;6313712;28;19935;-63
2023/10/15 13:30:03;;;;;;;;;;;20.30;44.40;;;;;;6319126;28;20287;-63
2023/10/15 13:33:04;;;;;;;;;;;20.40;45.10;;;;;;6318401;28;19951;-64
2023/10/15 13:36:08;;;;;;;;;;;20.30;45.20;;;;;;6319750;28;19912;-62
2023/10/15 13:39:18;;;;;;;;;;;20.40;45.80;;;;;;6319194;28;20452;-62
2023/10/15 13:42:18;;;;;;;;;;;20.30;45.90;;;;;;6311000;28;19920;-62
2023/10/15 13:45:19;;;;;;;;;;;20.40;46.50;;;;;;6313951;28;19919;-63
2023/10/15 13:48:20;;;;;;;;;;;20.40;46.80;;;;;;6315697;28;19947;-63
2023/10/15 13:51:22;;;;;;;;;;;20.40;47.10;;;;;;6317884;28;19950;-62
2023/10/15 13:54:23;;;;;;;;;;;20.40;47.30;;;;;;6318511;28;19996;-63
2023/10/15 13:57:24;;;;;;;;;;;20.40;47.60;;;;;;6327368;28;19916;-63
2023/10/15 14:00:27;;;;;;;;;;;20.40;47.80;;;;;;6318734;28;19908;-62
2023/10/15 14:03:29;;;;;;;;;;;20.40;48.00;;;;;;6317966;28;19916;-64
2023/10/15 14:06:30;;;;;;;;;;;20.40;48.50;;;;;;6318644;28;20127;-62
2023/10/15 14:09:34;;;;;;;;;;;20.40;48.60;;;;;;6318935;28;19912;-64
2023/10/15 14:12:34;;;;;;;;;;;20.40;48.70;;;;;;6317739;28;19908;-62
2023/10/15 14:15:35;;;;;;;;;;;20.40;48.90;;;;;;6318440;28;19923;-63
2023/10/15 14:18:36;;;;;;;;;;;20.40;49.10;;;;;;6318505;28;19944;-62
2023/10/15 14:21:37;;;;;;;;;;;20.40;49.20;;;;;;6318114;28;19909;-63
2023/10/15 14:24:38;;;;;;;;;;;20.40;49.30;;;;;;6317587;28;19937;-63
2023/10/15 14:27:40;;;;;;;;;;;20.40;49.50;;;;;;6319063;28;20411;-62
2023/10/15 14:30:41;;;;;;;;;;;20.40;49.50;;;;;;6310619;28;20015;-62
2023/10/15 14:33:41;;;;;;;;;;;20.40;49.60;;;;;;6319132;28;20013;-62
2023/10/15 14:36:47;;;;;;;;;;;20.40;49.70;;;;;;6319020;28;19940;-61
2023/10/15 14:39:49;;;;;;;;;;;20.40;49.80;;;;;;6317723;28;19915;-63
2023/10/15 14:42:49;;;;;;;;;;;20.40;49.90;;;;;;6318386;28;19916;-63
2023/10/15 14:45:50;;;;;;;;;;;20.40;49.90;;;;;;6318467;28;19919;-63
2023/10/15 14:48:51;;;;;;;;;;;20.40;49.90;;;;;;6326282;28;19915;-66
2023/10/15 14:51:52;;;;;;;;;;;20.40;50.20;;;;;;6316788;28;20057;-65
2023/10/15 14:54:52;;;;;;;;;;;20.40;50.30;;;;;;6317463;28;20378;-62
2023/10/15 14:57:53;;;;;;;;;;;20.40;50.30;;;;;;6318645;28;19916;-62
2023/10/15 15:00:54;;;;;;;;;;;20.40;50.60;;;;;;6316554;28;19912;-62
2023/10/15 15:03:55;;;;;;;;;;;20.40;50.60;;;;;;6316425;28;19927;-63
2023/10/15 15:06:55;;;;;;;;;;;20.40;50.70;;;;;;6316295;28;19908;-64
2023/10/15 15:09:56;;;;;;;;;;;20.40;50.80;;;;;;6316245;28;19908;-64
2023/10/15 15:12:56;;;;;;;;;;;20.40;50.90;;;;;;6316282;28;19908;-60
2023/10/15 15:15:57;;;;;;;;;;;20.40;50.80;;;;;;6316525;28;20442;-63
2023/10/15 15:18:57;;;;;;;;;;;20.40;51.00;;;;;;6315806;28;19919;-64
2023/10/15 15:21:59;;;;;;;;;;;20.40;51.00;;;;;;6315610;28;20580;-63
2023/10/15 15:25:00;;;;;;;;;;;20.40;51.10;;;;;;6315422;28;19916;-63
2023/10/15 15:28:01;;;;;;;;;;;20.40;51.70;;;;;;6315770;28;19993;-64
2023/10/15 15:31:01;;;;;;;;;;;20.40;51.20;;;;;;6315395;28;19920;-63
2023/10/15 15:34:03;;;;;;;;;;;20.40;51.40;;;;;;6317547;28;19914;-62
2023/10/15 15:37:04;;;;;;;;;;;20.40;51.40;;;;;;6316711;28;19909;-63
2023/10/15 15:40:05;;;;;;;;;;;20.40;51.50;;;;;;6316028;28;19916;-64
2023/10/15 15:43:05;;;;;;;;;;;20.40;51.60;;;;;;6315068;28;19938;-64
2023/10/15 15:46:12;;;;;;;;;;;20.40;51.60;;;;;;6314847;28;19909;-64
2023/10/15 15:49:13;;;;;;;;;;;20.40;51.70;;;;;;6314583;28;20321;-63
2023/10/15 15:52:14;;;;;;;;;;;20.40;51.70;;;;;;6314439;28;19908;-62
2023/10/15 15:55:14;;;;;;;;;;;20.40;51.50;;;;;;6314886;28;20719;-65
2023/10/15 15:58:15;;;;;;;;;;;20.30;51.30;;;;;;6315361;28;19912;-63
2023/10/15 16:01:24;;;;;;;;;;;20.40;50.80;;;;;;6314648;28;19912;-63
2023/10/15 16:04:25;;;;;;;;;;;20.30;50.10;;;;;;6314817;28;20408;-64
2023/10/15 16:07:27;;;;;;;;;;;20.30;49.30;;;;;;6313798;28;20024;-66
2023/10/15 16:10:28;;;;;;;;;;;20.30;47.70;;;;;;6314936;28;19991;-66
2023/10/15 16:13:29;;;;;;;;;;;20.30;47.80;;;;;;6315310;28;19943;-67
2023/10/15 16:16:29;;;;;;;;;;;20.40;48.80;;;;;;6314833;28;20256;-65
2023/10/15 16:19:30;;;;;;;;;;;20.40;48.80;;;;;;6315054;28;19951;-64
2023/10/15 16:22:32;;;;;;;;;;;20.50;49.20;;;;;;6314896;28;19916;-66
2023/10/15 16:25:32;;;;;;;;;;;20.50;49.00;;;;;;6314374;28;19915;-65
2023/10/15 16:28:33;;;;;;;;;;;20.50;48.80;;;;;;6316126;28;20061;-70
2023/10/15 16:31:34;;;;;;;;;;;20.40;48.40;;;;;;6316438;28;19961;-64
2023/10/15 16:34:34;;;;;;;;;;;20.40;48.70;;;;;;6315863;28;19908;-67
2023/10/15 16:37:35;;;;;;;;;;;20.40;48.20;;;;;;6313621;28;19965;-67
2023/10/15 16:40:36;;;;;;;;;;;20.40;47.80;;;;;;6312177;28;20002;-65
2023/10/15 16:43:37;;;;;;;;;;;20.40;47.40;;;;;;6313762;28;20390;-65
2023/10/15 16:46:37;;;;;;;;;;;20.40;47.50;;;;;;6314139;28;19999;-65
2023/10/15 16:49:38;;;;;;;;;;;20.40;46.60;;;;;;6314042;28;19912;-64
2023/10/15 16:52:39;;;;;;;;;;;20.40;46.80;;;;;;6317420;28;19915;-66
2023/10/15 16:55:40;;;;;;;;;;;20.40;46.80;;;;;;6317993;28;20014;-65
2023/10/15 16:58:40;;;;;;;;;;;20.40;46.80;;;;;;6318073;28;19977;-65
2023/10/15 17:01:41;;;;;;;;;;;20.40;47.10;;;;;;6317177;28;19950;-65
2023/10/15 17:04:41;;;;;;;;;;;20.40;47.40;;;;;;6321665;28;19920;-65
2023/10/15 17:07:42;;;;;;;;;;;20.40;47.80;;;;;;6323569;28;20336;-65
2023/10/15 17:10:49;;;;;;;;;;;20.40;47.80;;;;;;6321896;28;20440;-65
2023/10/15 17:13:50;;;;;;;;;;;20.40;48.10;;;;;;6323550;28;19957;-65
2023/10/15 17:16:51;;;;;;;;;;;20.40;48.50;;;;;;6323195;28;19916;-65
2023/10/15 17:19:52;;;;;;;;;;;20.40;48.50;;;;;;6321940;28;19931;-64
2023/10/15 17:22:53;;;;;;;;;;;20.40;48.50;;;;;;6323230;28;19908;-65
2023/10/15 17:25:54;;;;;;;;;;;20.40;48.70;;;;;;6322800;28;19912;-65
2023/10/15 17:28:55;;;;;;;;;;;20.30;48.70;;;;;;6323133;28;19918;-65
2023/10/15 17:31:57;;;;;;;;;;;20.30;48.80;;;;;;6323174;28;20267;-65
2023/10/15 17:34:58;;;;;;;;;;;20.40;49.10;;;;;;6322864;28;19908;-65
2023/10/15 17:37:58;;;;;;;;;;;20.40;49.30;;;;;;6322470;28;19915;-65
2023/10/15 17:41:01;;;;;;;;;;;20.40;49.30;;;;;;6322997;28;19912;-65
2023/10/15 17:44:01;;;;;;;;;;;20.40;49.50;;;;;;6321162;28;19924;-65
2023/10/15 17:47:02;;;;;;;;;;;20.40;49.60;;;;;;6319501;28;19951;-65
2023/10/15 17:50:03;;;;;;;;;;;20.40;49.70;;;;;;6320723;28;20057;-65
2023/10/15 17:53:05;;;;;;;;;;;20.40;49.70;;;;;;6317928;28;19912;-65
2023/10/15 17:56:06;;;;;;;;;;;20.40;49.80;;;;;;6316087;28;20371;-65
2023/10/15 17:59:06;;;;;;;;;;;20.40;49.90;;;;;;6320753;28;19962;-65